Silverthorne, CO

05:32 MDT le 26 avril 2015 (GMT -0600)
Kremmling | | Change Station
CLOSE
Current Station
Aéroport
Location: Kremmling,
Altitude: 7411 ft
Stations météo à proximité

Alt. 7411 ft 40.05 °N, 106.37 °W | Updated 17 minutes ago

Couvert
Couvert
36 ° F
Paraît 36 ° F
N
0
Vent Variable Vent de Nord

Aujourd'hui
Haut(e) -- | Bas -- ° F
--% Risque de précip.
Hier
Haut(e) -- | Bas -- ° F
Precip. -- pouce
6:12 AM 7:55 PM
Premier quartier, 55% visible
Pression 29.81 pouce
Visibilité 10.0 Miles terrestres
Nuages Couvert 1700 ft
Point de rosée 34 ° F
Humidité 93%
Précipitations 0.05 pouce
Profondeur de la couche neigeuse Non disponible.
UV 0 sur 12
Pollen 3.10 sur 12
Qualité de l'air Non disponible.
Flu Activity Sporadic
METAR K20V 261115Z AUTO 00000KT 10SM OVC017 02/01 A2981 RMK AO2

More Conditions Fewer Conditions

Pression 29.81 pouce
Visibilité 10.0 Miles terrestres
Nuages Couvert 1700 ft
Point de rosée 34 ° F
Humidité 93%
Précipitations 0.05 pouce
Profondeur de la couche neigeuse Non disponible.
UV 0 sur 12
Pollen 3.10 sur 12
Qualité de l'air Non disponible.
Flu Activity Sporadic
METAR K20V 261115Z AUTO 00000KT 10SM OVC017 02/01 A2981 RMK AO2

More Conditions Fewer Conditions

The full scope of the disaster following a powerful 7.8-magnitude earthquake in Nepal may not come into view for days, but global charities are already sending emergency aid. Click to see how you can help.

10-Day Weather Forecast

Almanac

Astronomie

Apr. 26, 2015 Lever Coucher
Temps réel
Crépuscule civil
Crépuscule nautique
Crépuscule astronomique
Lune
Durée de lumière visible
Longueur du jour
Tomorrow will be .
, % of the Moon is Illuminated

Extrêmes aujourd'hui

State Highs State Lows

Community

WunderPhotos

Upload Photos

1,816,964 Photos téléchargées !

WunderBlogs® & News

Nearby

Qualité de l'air

  Qualité de l'air Indice de la qualité de l'air Polluant
Not available.

Épaisseur de neige

Station Depth Altitude

Activité sismique

Ville Distance Mag. Time & Date
Minimum magnitude displayed is 2.5.

Températures des eaux côtières

Lieu Température

Stations

Stations météo à proximité

Emplacement de la station Température Refroidissement éolien Point de rosée Humidité Vent Precip. Alt. Mise à jour Type